Woody, CA (93287)

9:39 PM PST on December 20, 2014 (GMT -0800)
RAWS WOFFORD HEIGHTS CA US | Change Station
CLOSE
Current Station
Personal Weather Station
Location: Wofford Heights, CA
Elevation: 3149 ft
Nearby Weather Stations

Elev 3149 ft 35.72 °N, 118.50 °W | Updated 39 minutes ago

Mostly Cloudy
Mostly Cloudy
48 °F
Feels Like 44 °F
N
10
Wind Variable Wind from ENE
Gusts 26.0 mph

Today
High -- | Low -- °F
--% Chance of Precip.
Yesterday
High -- | Low -- °F
Precip. -- in
7:00 AM 4:45 PM
Waning Crescent, 1% visible
Pressure 30.24 in
Visibility 10.0 miles
Clouds Overcast 3700 ft
Windchill 44 °F
Dew Point 37 °F
Humidity 66%
Rainfall 0.00 in
Snow Depth Not available.
UV 0 out of 12
Pollen 4.10 out of 12
Air Quality Not available.
Flu Activity Not available.
METAR KBFL 210454Z 28003KT 10SM OVC037 14/11 A3024 RMK AO2 SLP239 T01390111

More Conditions Fewer Conditions

Pressure 30.24 in
Visibility 10.0 miles
Clouds Overcast 3700 ft
Windchill 44 °F
Dew Point 37 °F
Humidity 66%
Rainfall 0.00 in
Snow Depth Not available.
UV 0 out of 12
Pollen 4.10 out of 12
Air Quality Not available.
Flu Activity Not available.
METAR KBFL 210454Z 28003KT 10SM OVC037 14/11 A3024 RMK AO2 SLP239 T01390111

More Conditions Fewer Conditions

10-Day Weather Forecast

Almanac

Astronomy

Dec. 20, 2014 Rise Set
Actual Time
Civil Twilight
Nautical Twilight
Astronomical Twilight
Moon
Length of Visible Light
Length of Day
Tomorrow will be .
, % of the Moon is Illuminated

Today's Extremes

State Highs State Lows

Community

WunderPhotos

Upload Photos

1,779,359 photos uploaded!

WunderBlogs® & News

Nearby

Air Quality

  Air Quality AQ Index Pollutant
Not available.

Snow Depth

Station Depth Elevation

Earthquake Activity

City Distance Mag. Time & Date
Minimum magnitude displayed is 2.5.

Coastal Water Temperatures

Place Temperature

Nearby Weather Stations